sensor_id;sensor_type;location;lat;lon;timestamp;P1;P2;P0
72509;PMS5003;60532;56.114;40.350;2023-07-31T00:00:14;9.00;5.00;2.00
72509;PMS5003;60532;56.114;40.350;2023-07-31T00:02:15;6.00;6.00;4.00
72509;PMS5003;60532;56.114;40.350;2023-07-31T00:04:15;3.50;3.50;2.00
72509;PMS5003;60532;56.114;40.350;2023-07-31T00:06:15;5.75;5.00;3.50
72509;PMS5003;60532;56.114;40.350;2023-07-31T00:08:16;5.25;5.25;3.25
72509;PMS5003;60532;56.114;40.350;2023-07-31T00:10:16;4.00;4.00;3.00
72509;PMS5003;60532;56.114;40.350;2023-07-31T00:12:17;2.25;2.00;1.00
72509;PMS5003;60532;56.114;40.350;2023-07-31T00:14:17;7.00;4.50;3.00
72509;PMS5003;60532;56.114;40.350;2023-07-31T00:16:18;9.75;6.00;4.25
72509;PMS5003;60532;56.114;40.350;2023-07-31T00:18:18;5.00;5.00;3.00
72509;PMS5003;60532;56.114;40.350;2023-07-31T00:20:19;7.00;6.50;4.00
72509;PMS5003;60532;56.114;40.350;2023-07-31T00:22:19;4.00;4.00;1.25
72509;PMS5003;60532;56.114;40.350;2023-07-31T00:24:19;5.00;5.00;3.00
72509;PMS5003;60532;56.114;40.350;2023-07-31T00:26:20;7.75;5.75;3.50
72509;PMS5003;60532;56.114;40.350;2023-07-31T00:28:20;6.75;5.75;3.25
72509;PMS5003;60532;56.114;40.350;2023-07-31T00:30:21;5.00;5.00;3.00
72509;PMS5003;60532;56.114;40.350;2023-07-31T00:32:22;5.80;5.80;4.00
72509;PMS5003;60532;56.114;40.350;2023-07-31T00:34:23;5.25;4.25;4.00
72509;PMS5003;60532;56.114;40.350;2023-07-31T00:36:23;6.00;6.00;3.00
72509;PMS5003;60532;56.114;40.350;2023-07-31T00:38:23;9.00;6.00;3.25
72509;PMS5003;60532;56.114;40.350;2023-07-31T00:40:24;4.00;3.25;2.75
72509;PMS5003;60532;56.114;40.350;2023-07-31T00:42:24;6.75;5.00;3.25
72509;PMS5003;60532;56.114;40.350;2023-07-31T00:44:25;5.50;5.50;3.00
72509;PMS5003;60532;56.114;40.350;2023-07-31T00:46:25;5.00;5.00;3.25
72509;PMS5003;60532;56.114;40.350;2023-07-31T00:48:26;0.00;0.00;0.00
72509;PMS5003;60532;56.114;40.350;2023-07-31T00:50:26;5.75;5.00;3.25
72509;PMS5003;60532;56.114;40.350;2023-07-31T00:52:28;7.40;7.00;4.00
72509;PMS5003;60532;56.114;40.350;2023-07-31T00:54:28;5.75;5.00;3.25
72509;PMS5003;60532;56.114;40.350;2023-07-31T00:56:29;4.75;4.00;3.00
72509;PMS5003;60532;56.114;40.350;2023-07-31T00:58:30;8.00;5.25;3.00
72509;PMS5003;60532;56.114;40.350;2023-07-31T01:00:30;3.40;3.40;2.20
72509;PMS5003;60532;56.114;40.350;2023-07-31T01:02:31;9.00;9.00;5.00
72509;PMS5003;60532;56.114;40.350;2023-07-31T01:04:31;5.00;5.00;3.00
72509;PMS5003;60532;56.114;40.350;2023-07-31T01:06:46;7.00;7.00;4.00
72509;PMS5003;60532;56.114;40.350;2023-07-31T01:10:56;7.00;6.20;4.00
72509;PMS5003;60532;56.114;40.350;2023-07-31T01:13:00;5.40;5.40;3.40
72509;PMS5003;60532;56.114;40.350;2023-07-31T01:15:04;6.00;5.00;3.80
72509;PMS5003;60532;56.114;40.350;2023-07-31T01:17:05;8.80;6.00;3.80
72509;PMS5003;60532;56.114;40.350;2023-07-31T01:19:06;4.25;3.00;0.25
72509;PMS5003;60532;56.114;40.350;2023-07-31T01:21:15;4.80;4.80;3.00
72509;PMS5003;60532;56.114;40.350;2023-07-31T01:23:26;7.60;7.00;4.00
72509;PMS5003;60532;56.114;40.350;2023-07-31T01:27:36;5.20;5.20;4.00
72509;PMS5003;60532;56.114;40.350;2023-07-31T01:31:48;5.80;5.00;3.60
72509;PMS5003;60532;56.114;40.350;2023-07-31T01:33:50;7.40;7.00;4.00
72509;PMS5003;60532;56.114;40.350;2023-07-31T01:35:53;5.00;5.00;3.00
72509;PMS5003;60532;56.114;40.350;2023-07-31T01:37:54;8.00;4.80;3.00
72509;PMS5003;60532;56.114;40.350;2023-07-31T01:39:54;5.00;5.00;3.25
72509;PMS5003;60532;56.114;40.350;2023-07-31T01:41:55;5.00;5.00;3.00
72509;PMS5003;60532;56.114;40.350;2023-07-31T01:43:55;4.50;4.50;3.50
72509;PMS5003;60532;56.114;40.350;2023-07-31T01:45:56;6.50;5.25;3.00
72509;PMS5003;60532;56.114;40.350;2023-07-31T01:47:56;6.00;6.00;3.00
72509;PMS5003;60532;56.114;40.350;2023-07-31T01:49:57;3.25;3.25;2.00
72509;PMS5003;60532;56.114;40.350;2023-07-31T01:51:57;7.50;4.00;3.00
72509;PMS5003;60532;56.114;40.350;2023-07-31T01:53:58;3.50;3.00;3.00
72509;PMS5003;60532;56.114;40.350;2023-07-31T01:55:58;5.25;5.00;3.00
72509;PMS5003;60532;56.114;40.350;2023-07-31T01:57:59;4.60;4.60;3.80
72509;PMS5003;60532;56.114;40.350;2023-07-31T01:59:59;6.50;6.50;4.00
72509;PMS5003;60532;56.114;40.350;2023-07-31T02:02:00;5.50;5.50;4.00
72509;PMS5003;60532;56.114;40.350;2023-07-31T02:04:00;4.25;4.25;3.00
72509;PMS5003;60532;56.114;40.350;2023-07-31T02:06:01;6.80;6.80;4.20
72509;PMS5003;60532;56.114;40.350;2023-07-31T02:08:02;7.25;4.25;2.50
72509;PMS5003;60532;56.114;40.350;2023-07-31T02:10:02;7.25;5.00;2.75
72509;PMS5003;60532;56.114;40.350;2023-07-31T02:12:03;7.50;7.50;4.00
72509;PMS5003;60532;56.114;40.350;2023-07-31T02:14:03;5.75;4.00;3.00
72509;PMS5003;60532;56.114;40.350;2023-07-31T02:16:04;8.75;7.75;4.00
72509;PMS5003;60532;56.114;40.350;2023-07-31T02:18:04;7.25;4.75;3.00
72509;PMS5003;60532;56.114;40.350;2023-07-31T02:20:05;4.75;4.75;3.75
72509;PMS5003;60532;56.114;40.350;2023-07-31T02:22:05;6.40;4.20;3.00
72509;PMS5003;60532;56.114;40.350;2023-07-31T02:24:06;2.00;2.00;2.00
72509;PMS5003;60532;56.114;40.350;2023-07-31T02:26:07;8.25;5.75;4.00
72509;PMS5003;60532;56.114;40.350;2023-07-31T02:28:07;7.25;5.75;3.00
72509;PMS5003;60532;56.114;40.350;2023-07-31T02:30:08;6.00;4.25;3.00
72509;PMS5003;60532;56.114;40.350;2023-07-31T02:32:08;5.50;5.00;3.25
72509;PMS5003;60532;56.114;40.350;2023-07-31T02:34:09;4.00;4.00;3.00
72509;PMS5003;60532;56.114;40.350;2023-07-31T02:36:09;5.00;4.00;3.50
72509;PMS5003;60532;56.114;40.350;2023-07-31T02:38:09;5.50;5.25;3.00
72509;PMS5003;60532;56.114;40.350;2023-07-31T02:40:10;7.00;5.75;3.00
72509;PMS5003;60532;56.114;40.350;2023-07-31T02:42:11;5.75;4.75;3.00
72509;PMS5003;60532;56.114;40.350;2023-07-31T02:44:11;3.25;3.25;2.25
72509;PMS5003;60532;56.114;40.350;2023-07-31T02:46:14;3.20;3.20;3.00
72509;PMS5003;60532;56.114;40.350;2023-07-31T02:48:14;5.75;5.75;4.00
72509;PMS5003;60532;56.114;40.350;2023-07-31T02:50:15;5.00;5.00;3.00
72509;PMS5003;60532;56.114;40.350;2023-07-31T02:52:15;4.00;4.00;3.75
72509;PMS5003;60532;56.114;40.350;2023-07-31T02:54:16;5.00;5.00;3.00
72509;PMS5003;60532;56.114;40.350;2023-07-31T02:56:16;1.75;1.75;0.00
72509;PMS5003;60532;56.114;40.350;2023-07-31T02:58:17;4.25;4.25;3.00
72509;PMS5003;60532;56.114;40.350;2023-07-31T03:00:17;5.00;4.00;3.00
72509;PMS5003;60532;56.114;40.350;2023-07-31T03:02:18;4.00;4.00;2.00
72509;PMS5003;60532;56.114;40.350;2023-07-31T03:04:18;6.00;5.25;4.75
72509;PMS5003;60532;56.114;40.350;2023-07-31T03:06:19;7.00;6.00;3.00
72509;PMS5003;60532;56.114;40.350;2023-07-31T03:08:19;3.75;3.75;2.75
72509;PMS5003;60532;56.114;40.350;2023-07-31T03:10:20;3.50;3.25;1.50
72509;PMS5003;60532;56.114;40.350;2023-07-31T03:12:20;6.00;4.50;3.25
72509;PMS5003;60532;56.114;40.350;2023-07-31T03:14:21;7.00;5.50;4.00
72509;PMS5003;60532;56.114;40.350;2023-07-31T03:16:21;4.00;4.00;2.25
72509;PMS5003;60532;56.114;40.350;2023-07-31T03:18:22;4.80;4.80;3.00
72509;PMS5003;60532;56.114;40.350;2023-07-31T03:20:23;6.75;6.75;4.25
72509;PMS5003;60532;56.114;40.350;2023-07-31T03:22:23;7.50;6.00;4.00
72509;PMS5003;60532;56.114;40.350;2023-07-31T03:24:24;5.25;5.25;2.00
72509;PMS5003;60532;56.114;40.350;2023-07-31T03:26:24;6.00;6.00;3.25
72509;PMS5003;60532;56.114;40.350;2023-07-31T03:28:25;4.25;4.25;3.00
72509;PMS5003;60532;56.114;40.350;2023-07-31T03:30:25;5.25;5.00;3.00
72509;PMS5003;60532;56.114;40.350;2023-07-31T03:32:25;6.25;5.00;3.75
72509;PMS5003;60532;56.114;40.350;2023-07-31T03:34:26;4.00;4.00;3.75
72509;PMS5003;60532;56.114;40.350;2023-07-31T03:36:27;6.25;4.75;3.00
72509;PMS5003;60532;56.114;40.350;2023-07-31T03:38:27;5.50;4.75;3.00
72509;PMS5003;60532;56.114;40.350;2023-07-31T03:40:27;6.25;6.25;3.75
72509;PMS5003;60532;56.114;40.350;2023-07-31T03:42:28;5.50;5.25;3.75
72509;PMS5003;60532;56.114;40.350;2023-07-31T03:44:28;3.50;3.50;2.00
72509;PMS5003;60532;56.114;40.350;2023-07-31T03:46:29;4.25;4.25;3.00
72509;PMS5003;60532;56.114;40.350;2023-07-31T03:48:29;7.25;6.00;3.25
72509;PMS5003;60532;56.114;40.350;2023-07-31T03:50:30;5.00;5.00;2.75
72509;PMS5003;60532;56.114;40.350;2023-07-31T03:52:30;5.25;4.75;2.00
72509;PMS5003;60532;56.114;40.350;2023-07-31T03:54:31;4.25;4.25;2.00
72509;PMS5003;60532;56.114;40.350;2023-07-31T03:56:31;4.25;4.25;2.75
72509;PMS5003;60532;56.114;40.350;2023-07-31T03:58:32;5.00;4.00;2.00
72509;PMS5003;60532;56.114;40.350;2023-07-31T04:00:32;9.00;6.00;4.00
72509;PMS5003;60532;56.114;40.350;2023-07-31T04:02:33;5.75;5.75;3.00
72509;PMS5003;60532;56.114;40.350;2023-07-31T04:04:33;7.50;5.00;3.00
72509;PMS5003;60532;56.114;40.350;2023-07-31T04:06:33;5.00;5.00;3.00
72509;PMS5003;60532;56.114;40.350;2023-07-31T04:08:34;7.00;5.00;4.00
72509;PMS5003;60532;56.114;40.350;2023-07-31T04:10:34;7.00;5.00;3.00
72509;PMS5003;60532;56.114;40.350;2023-07-31T04:12:35;6.33;4.67;2.00
72509;PMS5003;60532;56.114;40.350;2023-07-31T04:14:35;6.00;5.50;3.00
72509;PMS5003;60532;56.114;40.350;2023-07-31T04:16:36;5.00;4.00;3.33
72509;PMS5003;60532;56.114;40.350;2023-07-31T04:18:37;7.00;5.67;3.67
72509;PMS5003;60532;56.114;40.350;2023-07-31T04:20:37;5.50;5.50;2.50
72509;PMS5003;60532;56.114;40.350;2023-07-31T04:22:37;7.33;4.00;3.00
72509;PMS5003;60532;56.114;40.350;2023-07-31T04:24:38;7.33;5.00;2.67
72509;PMS5003;60532;56.114;40.350;2023-07-31T04:26:38;4.33;4.33;2.00
72509;PMS5003;60532;56.114;40.350;2023-07-31T04:28:39;6.33;6.33;4.00
72509;PMS5003;60532;56.114;40.350;2023-07-31T04:30:39;7.00;6.00;4.00
72509;PMS5003;60532;56.114;40.350;2023-07-31T04:32:40;9.67;7.00;5.00
72509;PMS5003;60532;56.114;40.350;2023-07-31T04:34:40;8.00;7.00;4.00
72509;PMS5003;60532;56.114;40.350;2023-07-31T04:36:41;7.00;7.00;4.00
72509;PMS5003;60532;56.114;40.350;2023-07-31T04:38:41;7.00;7.00;4.00
72509;PMS5003;60532;56.114;40.350;2023-07-31T04:40:41;6.67;6.67;3.67
72509;PMS5003;60532;56.114;40.350;2023-07-31T04:42:42;7.33;7.33;4.00
72509;PMS5003;60532;56.114;40.350;2023-07-31T04:44:42;7.67;7.00;3.33
72509;PMS5003;60532;56.114;40.350;2023-07-31T04:46:43;7.67;7.33;4.00
72509;PMS5003;60532;56.114;40.350;2023-07-31T04:48:43;11.33;10.00;5.00
72509;PMS5003;60532;56.114;40.350;2023-07-31T04:50:44;13.00;10.67;6.00
72509;PMS5003;60532;56.114;40.350;2023-07-31T04:52:44;18.33;14.33;8.67
72509;PMS5003;60532;56.114;40.350;2023-07-31T04:54:45;20.75;13.50;8.00
72509;PMS5003;60532;56.114;40.350;2023-07-31T04:56:45;39.00;30.25;15.00
72509;PMS5003;60532;56.114;40.350;2023-07-31T04:58:45;32.75;23.25;11.00
72509;PMS5003;60532;56.114;40.350;2023-07-31T05:00:46;41.25;28.25;12.50
72509;PMS5003;60532;56.114;40.350;2023-07-31T05:02:46;33.75;26.75;12.50
72509;PMS5003;60532;56.114;40.350;2023-07-31T05:04:47;19.75;16.50;9.25
72509;PMS5003;60532;56.114;40.350;2023-07-31T05:06:47;22.75;18.00;9.00
72509;PMS5003;60532;56.114;40.350;2023-07-31T05:08:48;18.50;13.00;6.75
72509;PMS5003;60532;56.114;40.350;2023-07-31T05:10:49;16.00;13.75;7.75
72509;PMS5003;60532;56.114;40.350;2023-07-31T05:12:50;15.20;13.80;6.00
72509;PMS5003;60532;56.114;40.350;2023-07-31T05:14:50;20.25;16.00;9.75
72509;PMS5003;60532;56.114;40.350;2023-07-31T05:16:51;17.75;12.00;6.00
72509;PMS5003;60532;56.114;40.350;2023-07-31T05:18:52;45.25;31.75;18.25
72509;PMS5003;60532;56.114;40.350;2023-07-31T05:20:52;33.75;26.00;14.25
72509;PMS5003;60532;56.114;40.350;2023-07-31T05:22:53;34.00;28.25;12.75
72509;PMS5003;60532;56.114;40.350;2023-07-31T05:24:53;27.25;21.75;10.00
72509;PMS5003;60532;56.114;40.350;2023-07-31T05:26:54;29.25;22.75;12.25
72509;PMS5003;60532;56.114;40.350;2023-07-31T05:28:55;14.00;9.75;5.75
72509;PMS5003;60532;56.114;40.350;2023-07-31T05:30:59;14.50;10.75;5.75
72509;PMS5003;60532;56.114;40.350;2023-07-31T05:33:00;5.20;5.00;2.00
72509;PMS5003;60532;56.114;40.350;2023-07-31T05:35:00;5.75;5.75;3.00
72509;PMS5003;60532;56.114;40.350;2023-07-31T05:37:00;9.50;8.50;4.75
72509;PMS5003;60532;56.114;40.350;2023-07-31T05:39:01;7.00;7.00;3.25
72509;PMS5003;60532;56.114;40.350;2023-07-31T05:41:06;8.20;6.40;3.80
72509;PMS5003;60532;56.114;40.350;2023-07-31T05:43:06;14.00;8.00;4.00
72509;PMS5003;60532;56.114;40.350;2023-07-31T05:45:08;4.00;4.00;2.00
72509;PMS5003;60532;56.114;40.350;2023-07-31T05:47:09;4.25;4.25;2.00
72509;PMS5003;60532;56.114;40.350;2023-07-31T05:49:09;2.75;2.75;1.25
72509;PMS5003;60532;56.114;40.350;2023-07-31T05:51:10;2.50;1.75;1.25
72509;PMS5003;60532;56.114;40.350;2023-07-31T05:53:10;4.75;4.75;2.00
72509;PMS5003;60532;56.114;40.350;2023-07-31T05:55:11;3.00;3.00;1.25
72509;PMS5003;60532;56.114;40.350;2023-07-31T05:57:11;4.00;4.00;2.00
72509;PMS5003;60532;56.114;40.350;2023-07-31T05:59:12;2.50;2.50;1.50
72509;PMS5003;60532;56.114;40.350;2023-07-31T06:01:12;4.00;2.20;1.40
72509;PMS5003;60532;56.114;40.350;2023-07-31T06:03:14;4.40;4.40;2.80
72509;PMS5003;60532;56.114;40.350;2023-07-31T06:05:14;4.00;4.00;2.20
72509;PMS5003;60532;56.114;40.350;2023-07-31T06:07:15;3.75;3.75;1.75
72509;PMS5003;60532;56.114;40.350;2023-07-31T06:09:16;4.60;4.60;2.40
72509;PMS5003;60532;56.114;40.350;2023-07-31T06:11:16;4.00;4.00;3.00
72509;PMS5003;60532;56.114;40.350;2023-07-31T06:13:17;4.75;3.50;1.75
72509;PMS5003;60532;56.114;40.350;2023-07-31T06:15:17;4.00;3.50;2.25
72509;PMS5003;60532;56.114;40.350;2023-07-31T06:17:20;3.80;3.80;1.80
72509;PMS5003;60532;56.114;40.350;2023-07-31T06:19:21;2.40;2.40;1.80
72509;PMS5003;60532;56.114;40.350;2023-07-31T06:21:22;1.80;1.80;0.80
72509;PMS5003;60532;56.114;40.350;2023-07-31T06:23:23;3.00;3.00;1.00
72509;PMS5003;60532;56.114;40.350;2023-07-31T06:25:23;5.00;3.50;1.50
72509;PMS5003;60532;56.114;40.350;2023-07-31T06:27:24;2.75;2.75;1.50
72509;PMS5003;60532;56.114;40.350;2023-07-31T06:29:24;4.75;3.50;2.25
72509;PMS5003;60532;56.114;40.350;2023-07-31T06:31:24;8.75;4.75;2.75
72509;PMS5003;60532;56.114;40.350;2023-07-31T06:33:25;50.75;37.00;21.00
72509;PMS5003;60532;56.114;40.350;2023-07-31T06:35:25;25.00;16.75;4.25
72509;PMS5003;60532;56.114;40.350;2023-07-31T06:37:26;25.00;17.75;8.25
72509;PMS5003;60532;56.114;40.350;2023-07-31T06:39:26;33.75;27.25;12.25
72509;PMS5003;60532;56.114;40.350;2023-07-31T06:41:27;36.25;29.00;13.00
72509;PMS5003;60532;56.114;40.350;2023-07-31T06:43:27;26.75;16.75;5.00
72509;PMS5003;60532;56.114;40.350;2023-07-31T06:45:28;35.50;29.25;14.75
72509;PMS5003;60532;56.114;40.350;2023-07-31T06:47:29;30.00;20.00;12.75
72509;PMS5003;60532;56.114;40.350;2023-07-31T06:49:29;17.20;14.00;7.60
72509;PMS5003;60532;56.114;40.350;2023-07-31T06:51:29;22.00;18.50;9.25
72509;PMS5003;60532;56.114;40.350;2023-07-31T06:53:31;18.00;15.00;9.00
72509;PMS5003;60532;56.114;40.350;2023-07-31T06:55:32;76.67;54.67;29.33
72509;PMS5003;60532;56.114;40.350;2023-07-31T06:57:32;30.50;20.75;10.00
72509;PMS5003;60532;56.114;40.350;2023-07-31T06:59:33;16.25;14.00;6.25
72509;PMS5003;60532;56.114;40.350;2023-07-31T07:01:33;7.50;4.75;1.00
72509;PMS5003;60532;56.114;40.350;2023-07-31T07:03:34;37.67;33.33;18.00
72509;PMS5003;60532;56.114;40.350;2023-07-31T07:05:34;18.75;11.25;5.50
72509;PMS5003;60532;56.114;40.350;2023-07-31T07:07:35;10.00;8.50;5.00
72509;PMS5003;60532;56.114;40.350;2023-07-31T07:09:36;8.00;7.00;4.00
72509;PMS5003;60532;56.114;40.350;2023-07-31T07:11:36;14.67;10.33;5.00
72509;PMS5003;60532;56.114;40.350;2023-07-31T07:13:37;10.50;9.50;4.75
72509;PMS5003;60532;56.114;40.350;2023-07-31T07:15:38;8.00;7.00;3.50
72509;PMS5003;60532;56.114;40.350;2023-07-31T07:17:38;12.33;9.67;5.00
72509;PMS5003;60532;56.114;40.350;2023-07-31T07:19:41;8.00;7.33;4.00
72509;PMS5003;60532;56.114;40.350;2023-07-31T07:21:42;5.75;5.75;3.00
72509;PMS5003;60532;56.114;40.350;2023-07-31T07:23:42;8.67;7.67;5.00
72509;PMS5003;60532;56.114;40.350;2023-07-31T07:25:43;20.00;15.67;8.33
72509;PMS5003;60532;56.114;40.350;2023-07-31T07:27:44;10.25;7.75;4.50
72509;PMS5003;60532;56.114;40.350;2023-07-31T07:29:45;22.33;16.00;8.33
72509;PMS5003;60532;56.114;40.350;2023-07-31T07:31:46;5.75;5.50;3.25
72509;PMS5003;60532;56.114;40.350;2023-07-31T07:33:46;4.33;4.33;2.00
72509;PMS5003;60532;56.114;40.350;2023-07-31T07:35:46;5.00;5.00;3.33
72509;PMS5003;60532;56.114;40.350;2023-07-31T07:37:48;11.00;7.33;4.33
72509;PMS5003;60532;56.114;40.350;2023-07-31T07:39:50;2.75;2.75;1.50
72509;PMS5003;60532;56.114;40.350;2023-07-31T07:41:50;7.67;5.33;3.00
72509;PMS5003;60532;56.114;40.350;2023-07-31T07:43:51;4.33;4.33;2.67
72509;PMS5003;60532;56.114;40.350;2023-07-31T07:45:52;5.50;4.00;3.00
72509;PMS5003;60532;56.114;40.350;2023-07-31T07:47:53;5.75;5.75;3.00
72509;PMS5003;60532;56.114;40.350;2023-07-31T07:49:53;5.00;5.00;2.00
72509;PMS5003;60532;56.114;40.350;2023-07-31T07:51:54;4.33;4.33;3.00
72509;PMS5003;60532;56.114;40.350;2023-07-31T07:53:54;4.00;4.00;3.00
72509;PMS5003;60532;56.114;40.350;2023-07-31T07:55:55;2.00;2.00;2.00
72509;PMS5003;60532;56.114;40.350;2023-07-31T07:57:55;3.00;3.00;2.00
72509;PMS5003;60532;56.114;40.350;2023-07-31T07:59:56;3.67;3.67;2.67
72509;PMS5003;60532;56.114;40.350;2023-07-31T08:01:56;5.33;5.00;3.00
72509;PMS5003;60532;56.114;40.350;2023-07-31T08:03:57;4.00;4.00;3.00
72509;PMS5003;60532;56.114;40.350;2023-07-31T08:06:01;4.00;4.00;3.00
72509;PMS5003;60532;56.114;40.350;2023-07-31T08:08:01;3.75;3.75;2.00
72509;PMS5003;60532;56.114;40.350;2023-07-31T08:10:02;3.00;3.00;2.00
72509;PMS5003;60532;56.114;40.350;2023-07-31T08:12:02;3.33;3.33;1.00
72509;PMS5003;60532;56.114;40.350;2023-07-31T08:14:04;3.75;3.75;2.75
72509;PMS5003;60532;56.114;40.350;2023-07-31T08:16:04;3.67;3.67;2.33
72509;PMS5003;60532;56.114;40.350;2023-07-31T08:18:04;4.67;4.00;2.33
72509;PMS5003;60532;56.114;40.350;2023-07-31T08:20:05;3.33;3.33;2.00
72509;PMS5003;60532;56.114;40.350;2023-07-31T08:22:06;4.00;4.00;2.00
72509;PMS5003;60532;56.114;40.350;2023-07-31T08:24:06;3.00;3.00;2.00
72509;PMS5003;60532;56.114;40.350;2023-07-31T08:26:14;4.75;4.75;3.00
72509;PMS5003;60532;56.114;40.350;2023-07-31T08:28:14;3.00;3.00;2.00
72509;PMS5003;60532;56.114;40.350;2023-07-31T08:30:14;4.00;4.00;2.00
72509;PMS5003;60532;56.114;40.350;2023-07-31T08:32:15;5.00;5.00;3.00
72509;PMS5003;60532;56.114;40.350;2023-07-31T08:34:15;3.33;3.33;2.00
72509;PMS5003;60532;56.114;40.350;2023-07-31T08:36:16;3.00;3.00;2.00
72509;PMS5003;60532;56.114;40.350;2023-07-31T08:38:16;5.33;3.33;2.00
72509;PMS5003;60532;56.114;40.350;2023-07-31T08:40:17;5.00;4.67;2.33
72509;PMS5003;60532;56.114;40.350;2023-07-31T08:42:17;5.33;4.67;3.00
72509;PMS5003;60532;56.114;40.350;2023-07-31T08:44:18;3.67;3.67;2.00
72509;PMS5003;60532;56.114;40.350;2023-07-31T08:46:18;2.00;2.00;1.00
72509;PMS5003;60532;56.114;40.350;2023-07-31T08:48:21;4.00;4.00;2.00
72509;PMS5003;60532;56.114;40.350;2023-07-31T08:50:22;4.25;4.25;2.25
72509;PMS5003;60532;56.114;40.350;2023-07-31T08:52:23;5.00;3.67;2.00
72509;PMS5003;60532;56.114;40.350;2023-07-31T08:54:23;4.00;4.00;2.00
72509;PMS5003;60532;56.114;40.350;2023-07-31T08:56:24;3.00;3.00;1.33
72509;PMS5003;60532;56.114;40.350;2023-07-31T08:58:27;4.75;3.00;2.00
72509;PMS5003;60532;56.114;40.350;2023-07-31T09:00:31;3.00;3.00;1.25
72509;PMS5003;60532;56.114;40.350;2023-07-31T09:04:39;6.25;3.25;3.00
72509;PMS5003;60532;56.114;40.350;2023-07-31T09:06:40;4.00;3.67;2.00
72509;PMS5003;60532;56.114;40.350;2023-07-31T09:08:41;4.00;4.00;2.00
72509;PMS5003;60532;56.114;40.350;2023-07-31T09:10:42;4.00;4.00;2.00
72509;PMS5003;60532;56.114;40.350;2023-07-31T09:12:43;4.50;4.50;2.75
72509;PMS5003;60532;56.114;40.350;2023-07-31T09:14:43;4.00;4.00;2.67
72509;PMS5003;60532;56.114;40.350;2023-07-31T09:16:52;6.25;5.50;3.00
72509;PMS5003;60532;56.114;40.350;2023-07-31T09:18:54;2.00;2.00;2.00
72509;PMS5003;60532;56.114;40.350;2023-07-31T09:21:02;2.75;2.75;1.75
72509;PMS5003;60532;56.114;40.350;2023-07-31T09:25:27;3.50;3.50;2.25
72509;PMS5003;60532;56.114;40.350;2023-07-31T09:27:27;3.50;2.50;2.00
72509;PMS5003;60532;56.114;40.350;2023-07-31T09:29:28;4.67;3.00;3.00
72509;PMS5003;60532;56.114;40.350;2023-07-31T09:33:53;2.25;2.25;2.00
72509;PMS5003;60532;56.114;40.350;2023-07-31T09:35:54;3.00;3.00;1.50
72509;PMS5003;60532;56.114;40.350;2023-07-31T09:37:56;5.00;4.00;2.00
72509;PMS5003;60532;56.114;40.350;2023-07-31T09:39:57;3.50;3.00;2.00
72509;PMS5003;60532;56.114;40.350;2023-07-31T09:41:59;2.25;2.25;1.25
72509;PMS5003;60532;56.114;40.350;2023-07-31T09:43:59;4.67;4.67;2.67
72509;PMS5003;60532;56.114;40.350;2023-07-31T09:46:00;3.00;3.00;2.33
72509;PMS5003;60532;56.114;40.350;2023-07-31T09:48:00;0.33;0.33;0.00
72509;PMS5003;60532;56.114;40.350;2023-07-31T09:50:00;3.33;3.33;1.67
72509;PMS5003;60532;56.114;40.350;2023-07-31T09:52:01;4.67;4.67;2.00
72509;PMS5003;60532;56.114;40.350;2023-07-31T09:54:01;3.67;3.67;2.67
72509;PMS5003;60532;56.114;40.350;2023-07-31T09:56:02;3.00;3.00;2.00
72509;PMS5003;60532;56.114;40.350;2023-07-31T09:58:03;5.00;3.00;2.00
72509;PMS5003;60532;56.114;40.350;2023-07-31T10:00:05;3.75;3.75;2.00
72509;PMS5003;60532;56.114;40.350;2023-07-31T10:02:06;3.00;3.00;2.00
72509;PMS5003;60532;56.114;40.350;2023-07-31T10:04:11;3.75;3.25;1.00
72509;PMS5003;60532;56.114;40.350;2023-07-31T10:06:12;3.25;3.25;2.00
72509;PMS5003;60532;56.114;40.350;2023-07-31T10:08:16;2.50;2.50;2.00
72509;PMS5003;60532;56.114;40.350;2023-07-31T10:10:18;3.00;3.00;1.50
72509;PMS5003;60532;56.114;40.350;2023-07-31T10:12:20;3.00;3.00;2.00
72509;PMS5003;60532;56.114;40.350;2023-07-31T10:14:22;3.50;3.00;2.00
72509;PMS5003;60532;56.114;40.350;2023-07-31T10:16:24;5.75;5.75;3.25
72509;PMS5003;60532;56.114;40.350;2023-07-31T10:18:25;4.00;4.00;2.00
72509;PMS5003;60532;56.114;40.350;2023-07-31T10:20:26;3.25;3.25;1.75
72509;PMS5003;60532;56.114;40.350;2023-07-31T10:22:27;4.00;4.00;2.25
72509;PMS5003;60532;56.114;40.350;2023-07-31T10:24:28;4.00;3.00;2.25
72509;PMS5003;60532;56.114;40.350;2023-07-31T10:26:33;4.25;4.00;1.75
72509;PMS5003;60532;56.114;40.350;2023-07-31T10:28:35;4.75;4.25;2.25
72509;PMS5003;60532;56.114;40.350;2023-07-31T10:30:36;3.25;3.25;2.50
72509;PMS5003;60532;56.114;40.350;2023-07-31T10:32:38;4.50;4.50;3.00
72509;PMS5003;60532;56.114;40.350;2023-07-31T10:34:41;5.75;5.75;3.00
72509;PMS5003;60532;56.114;40.350;2023-07-31T10:36:42;2.00;2.00;1.50
72509;PMS5003;60532;56.114;40.350;2023-07-31T10:38:42;3.33;3.33;2.00
72509;PMS5003;60532;56.114;40.350;2023-07-31T10:40:43;7.00;5.00;3.00
72509;PMS5003;60532;56.114;40.350;2023-07-31T10:42:48;5.75;5.00;2.75
72509;PMS5003;60532;56.114;40.350;2023-07-31T10:44:49;6.00;5.25;3.00
72509;PMS5003;60532;56.114;40.350;2023-07-31T10:46:49;5.33;5.33;4.00
72509;PMS5003;60532;56.114;40.350;2023-07-31T10:48:58;5.00;4.50;2.00
72509;PMS5003;60532;56.114;40.350;2023-07-31T10:50:59;4.00;4.00;2.75
72509;PMS5003;60532;56.114;40.350;2023-07-31T10:53:00;6.33;5.33;2.00
72509;PMS5003;60532;56.114;40.350;2023-07-31T10:57:34;5.75;5.00;3.00
72509;PMS5003;60532;56.114;40.350;2023-07-31T10:59:35;3.00;3.00;1.50
72509;PMS5003;60532;56.114;40.350;2023-07-31T11:01:55;4.00;4.00;3.00
72509;PMS5003;60532;56.114;40.350;2023-07-31T11:04:07;8.00;6.00;3.75
72509;PMS5003;60532;56.114;40.350;2023-07-31T11:06:10;3.75;3.75;3.00
72509;PMS5003;60532;56.114;40.350;2023-07-31T11:08:18;5.00;5.00;3.00
72509;PMS5003;60532;56.114;40.350;2023-07-31T11:10:22;4.50;4.50;2.75
72509;PMS5003;60532;56.114;40.350;2023-07-31T11:12:23;4.00;2.00;1.00
72509;PMS5003;60532;56.114;40.350;2023-07-31T11:14:23;4.00;4.00;3.00
72509;PMS5003;60532;56.114;40.350;2023-07-31T11:16:24;5.67;5.67;3.67
72509;PMS5003;60532;56.114;40.350;2023-07-31T11:18:28;4.50;4.00;2.00
72509;PMS5003;60532;56.114;40.350;2023-07-31T11:20:32;5.25;5.25;3.00
72509;PMS5003;60532;56.114;40.350;2023-07-31T11:22:34;6.00;6.00;4.00
72509;PMS5003;60532;56.114;40.350;2023-07-31T11:24:35;4.00;4.00;2.00
72509;PMS5003;60532;56.114;40.350;2023-07-31T11:26:35;1.33;1.33;1.00
72509;PMS5003;60532;56.114;40.350;2023-07-31T11:28:36;4.33;4.33;2.00
72509;PMS5003;60532;56.114;40.350;2023-07-31T11:30:36;4.33;4.33;2.67
72509;PMS5003;60532;56.114;40.350;2023-07-31T11:32:37;4.00;4.00;2.50
72509;PMS5003;60532;56.114;40.350;2023-07-31T11:34:59;8.00;5.00;3.33
72509;PMS5003;60532;56.114;40.350;2023-07-31T11:36:58;6.25;5.75;3.00
72509;PMS5003;60532;56.114;40.350;2023-07-31T11:39:05;3.00;3.00;2.33
72509;PMS5003;60532;56.114;40.350;2023-07-31T11:41:06;6.25;5.00;3.50
72509;PMS5003;60532;56.114;40.350;2023-07-31T11:43:07;7.00;5.67;2.00
72509;PMS5003;60532;56.114;40.350;2023-07-31T11:45:08;4.00;4.00;3.00
72509;PMS5003;60532;56.114;40.350;2023-07-31T11:47:09;6.25;5.00;4.00
72509;PMS5003;60532;56.114;40.350;2023-07-31T11:49:10;5.00;5.00;3.00
72509;PMS5003;60532;56.114;40.350;2023-07-31T11:51:10;6.00;5.00;3.67